createdAt,value
2023-05-19T00:00:58.996Z,46.43
2023-05-19T00:03:26.958Z,46.47
2023-05-19T00:05:54.222Z,46.81
2023-05-19T00:08:24.512Z,46.52
2023-05-19T00:10:51.134Z,47.12
2023-05-19T00:13:17.743Z,47.03
2023-05-19T00:15:44.418Z,47.38
2023-05-19T00:18:13.994Z,47.56
2023-05-19T00:20:41.329Z,47.36
2023-05-19T00:23:07.937Z,47.78
2023-05-19T00:25:34.521Z,47.99
2023-05-19T00:28:02.323Z,47.93
2023-05-19T00:30:29.702Z,48.05
2023-05-19T00:32:56.459Z,48.06
2023-05-19T00:35:26.021Z,47.61
2023-05-19T00:37:52.467Z,48.03
2023-05-19T00:40:19.255Z,48.06
2023-05-19T00:42:45.704Z,48.23
2023-05-19T00:45:12.105Z,48.29
2023-05-19T00:47:39.258Z,48.43
2023-05-19T00:50:06.016Z,48.31
2023-05-19T00:52:32.426Z,48.45
2023-05-19T00:54:59.496Z,48.35
2023-05-19T00:57:27.077Z,48.41
2023-05-19T00:59:53.743Z,48.55
2023-05-19T01:02:20.602Z,48.75
2023-05-19T01:04:47.702Z,48.70
2023-05-19T01:07:15.246Z,48.96
2023-05-19T01:09:41.922Z,48.61
2023-05-19T01:12:08.854Z,48.79
2023-05-19T01:14:35.285Z,48.95
2023-05-19T01:17:09.995Z,48.55
2023-05-19T01:20:14.148Z,48.55
2023-05-19T01:23:15.049Z,48.70
2023-05-19T01:26:12.807Z,48.48
2023-05-19T01:29:07.349Z,48.80
2023-05-19T01:31:35.602Z,48.77
2023-05-19T01:34:04.615Z,48.88
2023-05-19T01:36:33.492Z,48.69
2023-05-19T01:39:03.747Z,48.95
2023-05-19T01:41:32.428Z,48.92
2023-05-19T01:43:59.282Z,49.10
2023-05-19T01:46:25.856Z,48.88
2023-05-19T01:48:52.486Z,49.10
2023-05-19T01:51:18.972Z,48.83
2023-05-19T01:53:45.349Z,48.85
2023-05-19T01:56:16.156Z,48.75
2023-05-19T01:58:49.660Z,48.56
2023-05-19T02:01:28.838Z,48.78
2023-05-19T02:04:26.964Z,48.88
2023-05-19T02:07:10.282Z,48.55
2023-05-19T02:10:11.436Z,48.58
2023-05-19T02:12:40.634Z,48.57
2023-05-19T02:15:16.961Z,48.66
2023-05-19T02:17:48.390Z,48.43
2023-05-19T02:20:15.996Z,48.91
2023-05-19T02:22:42.567Z,48.78
2023-05-19T02:25:09.584Z,49.23
2023-05-19T02:27:37.797Z,48.92
2023-05-19T02:30:05.514Z,49.00
2023-05-19T02:32:32.855Z,48.81
2023-05-19T02:34:59.904Z,49.05
2023-05-19T02:37:28.575Z,49.01
2023-05-19T02:39:55.748Z,49.15
2023-05-19T02:42:23.259Z,49.05
2023-05-19T02:44:49.755Z,48.95
2023-05-19T02:47:16.209Z,49.14
2023-05-19T02:49:44.039Z,48.85
2023-05-19T02:52:10.580Z,49.03
2023-05-19T02:54:37.001Z,49.13
2023-05-19T02:57:03.604Z,49.13
2023-05-19T02:59:30.050Z,49.02
2023-05-19T03:02:00.078Z,48.82
2023-05-19T03:04:26.602Z,49.05
2023-05-19T03:06:54.033Z,49.11
2023-05-19T03:09:20.912Z,49.43
2023-05-19T03:11:47.269Z,49.33
2023-05-19T03:14:13.949Z,49.17
2023-05-19T03:16:42.165Z,49.07
2023-05-19T03:19:09.155Z,49.44
2023-05-19T03:21:35.616Z,49.52
2023-05-19T03:24:02.356Z,49.35
2023-05-19T03:26:29.272Z,49.57
2023-05-19T03:28:55.840Z,49.40
2023-05-19T03:31:22.377Z,49.66
2023-05-19T03:33:48.917Z,49.82
2023-05-19T03:36:15.275Z,49.77
2023-05-19T03:38:41.758Z,49.70
2023-05-19T03:41:08.141Z,49.74
2023-05-19T03:43:34.515Z,49.69
2023-05-19T03:46:02.106Z,49.94
2023-05-19T03:48:28.500Z,49.69
2023-05-19T03:50:55.579Z,49.54
2023-05-19T03:53:21.985Z,49.74
2023-05-19T03:55:49.594Z,49.91
2023-05-19T03:58:16.080Z,49.88
2023-05-19T04:00:42.660Z,49.86
2023-05-19T04:03:09.177Z,49.98
2023-05-19T04:05:35.746Z,49.96
2023-05-19T04:08:02.197Z,49.91
2023-05-19T04:10:28.936Z,49.98
2023-05-19T04:12:55.333Z,49.55
2023-05-19T04:15:21.771Z,49.93
2023-05-19T04:17:48.282Z,49.65
2023-05-19T04:20:14.738Z,49.68
2023-05-19T04:22:41.449Z,49.86
2023-05-19T04:25:08.730Z,49.84
2023-05-19T04:27:39.357Z,49.97
2023-05-19T04:30:06.437Z,49.63
2023-05-19T04:32:32.982Z,49.57
2023-05-19T04:34:59.668Z,49.83
2023-05-19T04:37:26.604Z,49.54
2023-05-19T04:39:54.135Z,49.58
2023-05-19T04:42:20.837Z,49.49
2023-05-19T04:44:49.306Z,49.79
2023-05-19T04:47:16.056Z,49.38
2023-05-19T04:49:42.903Z,49.60
2023-05-19T04:52:10.987Z,49.31
2023-05-19T04:54:38.610Z,49.48
2023-05-19T04:57:05.749Z,49.38
2023-05-19T04:59:32.428Z,49.20
2023-05-19T05:01:58.829Z,49.03
2023-05-19T05:04:25.975Z,49.18
2023-05-19T05:06:52.347Z,49.17
2023-05-19T05:09:19.782Z,49.21
2023-05-19T05:11:46.717Z,49.02
2023-05-19T05:14:13.493Z,49.03
2023-05-19T05:16:40.773Z,49.11
2023-05-19T05:19:07.604Z,48.92
2023-05-19T05:21:34.696Z,48.69
2023-05-19T05:24:01.427Z,48.59
2023-05-19T05:26:30.807Z,48.82
2023-05-19T05:28:57.216Z,48.49
2023-05-19T05:31:23.611Z,48.48
2023-05-19T05:33:50.269Z,48.51
2023-05-19T05:36:16.660Z,48.56
2023-05-19T05:38:43.090Z,48.14
2023-05-19T05:41:09.597Z,48.33
2023-05-19T05:43:36.002Z,48.14
2023-05-19T05:46:02.460Z,48.10
2023-05-19T05:48:29.172Z,48.13
2023-05-19T05:50:57.465Z,48.14
2023-05-19T05:53:25.603Z,47.80
2023-05-19T05:55:53.503Z,48.31
2023-05-19T05:58:21.208Z,48.00
2023-05-19T06:00:51.368Z,47.75
2023-05-19T06:03:17.948Z,47.97
2023-05-19T06:05:44.647Z,47.76
2023-05-19T06:08:11.132Z,47.60
2023-05-19T06:10:39.041Z,47.72
2023-05-19T06:13:05.524Z,47.53
2023-05-19T06:15:31.981Z,47.39
2023-05-19T06:17:59.000Z,47.52
2023-05-19T06:20:25.520Z,47.32
2023-05-19T06:22:52.015Z,47.28
2023-05-19T06:25:18.575Z,47.24
2023-05-19T06:27:44.948Z,47.22
2023-05-19T06:30:12.353Z,47.15
2023-05-19T06:32:39.035Z,47.25
2023-05-19T06:35:05.701Z,47.16
2023-05-19T06:37:32.061Z,47.06
2023-05-19T06:39:58.552Z,46.73
2023-05-19T06:42:25.371Z,46.99
2023-05-19T06:44:52.890Z,46.80
2023-05-19T06:47:19.561Z,46.94
2023-05-19T06:49:46.645Z,46.82
2023-05-19T06:52:13.371Z,46.66
2023-05-19T06:54:39.887Z,46.63
2023-05-19T06:57:06.356Z,46.24
2023-05-19T06:59:32.959Z,46.54
2023-05-19T07:01:59.394Z,46.44
2023-05-19T07:04:26.060Z,46.32
2023-05-19T07:06:53.369Z,46.99
2023-05-19T07:09:19.808Z,46.25
2023-05-19T07:11:46.825Z,45.47
2023-05-19T07:14:13.173Z,45.98
2023-05-19T07:16:39.638Z,45.33
2023-05-19T07:19:06.165Z,45.57
2023-05-19T07:21:32.631Z,45.62
2023-05-19T07:23:59.066Z,45.07
2023-05-19T07:26:26.276Z,45.32
2023-05-19T07:28:52.981Z,44.88
2023-05-19T07:31:19.493Z,45.07
2023-05-19T07:33:45.858Z,44.88
2023-05-19T07:36:12.522Z,44.50
2023-05-19T07:38:38.952Z,44.32
2023-05-19T07:41:05.710Z,44.26
2023-05-19T07:43:32.152Z,43.62
2023-05-19T07:45:58.656Z,43.78
2023-05-19T07:48:25.868Z,43.35
2023-05-19T07:50:53.026Z,43.70
2023-05-19T07:53:20.134Z,43.46
2023-05-19T07:55:46.912Z,43.16
2023-05-19T07:58:13.354Z,42.61
2023-05-19T08:00:41.087Z,42.48
2023-05-19T08:03:07.986Z,42.95
2023-05-19T08:05:35.572Z,42.52
2023-05-19T08:08:02.769Z,42.50
2023-05-19T08:10:29.472Z,42.27
2023-05-19T08:12:55.908Z,41.87
2023-05-19T08:15:22.403Z,41.98
2023-05-19T08:17:48.824Z,42.15
2023-05-19T08:20:15.256Z,41.38
2023-05-19T08:22:41.635Z,41.15
2023-05-19T08:25:08.383Z,40.62
2023-05-19T08:27:35.007Z,40.84
2023-05-19T08:30:01.425Z,40.86
2023-05-19T08:32:27.836Z,40.19
2023-05-19T08:34:54.241Z,39.43
2023-05-19T08:37:20.808Z,39.83
2023-05-19T08:39:47.412Z,38.93
2023-05-19T08:42:13.930Z,38.13
2023-05-19T08:44:42.079Z,38.34
2023-05-19T08:47:13.242Z,38.50
2023-05-19T08:49:47.579Z,37.88
2023-05-19T08:52:50.267Z,37.19
2023-05-19T08:55:34.312Z,37.46
2023-05-19T08:58:03.387Z,37.39
2023-05-19T09:00:29.964Z,36.70
2023-05-19T09:03:10.807Z,36.65
2023-05-19T09:05:44.050Z,36.41
2023-05-19T09:08:10.705Z,36.72
2023-05-19T09:10:37.121Z,36.03
2023-05-19T09:13:05.646Z,36.00
2023-05-19T09:15:34.108Z,35.90
2023-05-19T09:18:15.302Z,35.86
2023-05-19T09:20:47.091Z,36.18
2023-05-19T09:23:15.859Z,35.75
2023-05-19T09:25:50.087Z,35.76
2023-05-19T09:28:28.036Z,35.97
2023-05-19T09:31:09.161Z,34.78
2023-05-19T09:33:45.556Z,35.07
2023-05-19T09:36:12.715Z,34.91
2023-05-19T09:38:39.945Z,34.80
2023-05-19T09:41:07.582Z,34.44
2023-05-19T09:43:34.799Z,33.79
2023-05-19T09:46:09.195Z,33.71
2023-05-19T09:48:37.536Z,32.69
2023-05-19T09:51:06.283Z,32.27
2023-05-19T09:53:34.510Z,33.22
2023-05-19T09:56:02.207Z,32.89
2023-05-19T09:58:35.089Z,33.01
2023-05-19T10:01:03.219Z,31.75
2023-05-19T10:03:32.535Z,31.40
2023-05-19T10:06:01.337Z,31.95
2023-05-19T10:08:30.415Z,31.68
2023-05-19T10:10:57.697Z,31.98
2023-05-19T10:13:24.254Z,32.34
2023-05-19T10:18:22.997Z,32.37
2023-05-19T10:20:50.175Z,31.94
2023-05-19T10:23:16.718Z,31.11
2023-05-19T10:25:43.731Z,31.50
2023-05-19T10:28:14.862Z,31.88
2023-05-19T10:30:46.307Z,32.22
2023-05-19T10:33:17.470Z,31.73
2023-05-19T10:36:13.894Z,31.86
2023-05-19T10:38:48.256Z,31.74
2023-05-19T10:41:33.051Z,31.51
2023-05-19T10:44:14.018Z,31.30
2023-05-19T10:46:41.300Z,30.93
2023-05-19T10:49:08.050Z,30.86
2023-05-19T10:51:36.033Z,30.86
2023-05-19T10:54:03.920Z,30.52
2023-05-19T10:56:36.311Z,30.80
2023-05-19T10:59:03.532Z,30.10
2023-05-19T11:01:33.281Z,30.29
2023-05-19T11:04:12.313Z,30.48
2023-05-19T11:06:40.300Z,30.37
2023-05-19T11:09:14.028Z,30.88
2023-05-19T11:11:52.075Z,31.09
2023-05-19T11:14:24.108Z,30.70
2023-05-19T11:16:52.552Z,30.87
2023-05-19T11:19:29.869Z,30.98
2023-05-19T11:21:57.358Z,30.69
2023-05-19T11:24:33.939Z,30.65
2023-05-19T11:27:00.308Z,30.75
2023-05-19T11:29:27.823Z,30.32
2023-05-19T11:31:54.569Z,30.03
2023-05-19T11:34:21.152Z,29.76
2023-05-19T11:36:48.170Z,30.01
2023-05-19T11:39:15.277Z,30.56
2023-05-19T11:41:41.760Z,31.01
2023-05-19T11:44:11.890Z,30.00
2023-05-19T11:46:38.511Z,29.61
2023-05-19T11:49:05.656Z,29.46
2023-05-19T11:51:33.525Z,29.11
2023-05-19T11:54:01.580Z,29.15
2023-05-19T11:56:33.205Z,28.66
2023-05-19T11:58:59.560Z,28.59
2023-05-19T12:01:26.952Z,29.05
2023-05-19T12:03:53.563Z,28.99
2023-05-19T12:06:20.299Z,28.80
2023-05-19T12:08:46.988Z,28.64
2023-05-19T12:11:14.195Z,28.78
2023-05-19T12:13:40.707Z,28.60
2023-05-19T12:16:08.954Z,28.80
2023-05-19T12:18:40.209Z,28.69
2023-05-19T12:21:06.718Z,28.58
2023-05-19T12:23:33.739Z,28.97
2023-05-19T12:26:00.865Z,29.14
2023-05-19T12:28:31.116Z,29.30
2023-05-19T12:30:58.463Z,29.85
2023-05-19T12:33:25.285Z,28.71
2023-05-19T12:35:51.690Z,28.34
2023-05-19T12:38:19.463Z,28.07
2023-05-19T12:40:45.929Z,27.77
2023-05-19T12:43:25.651Z,28.25
2023-05-19T12:45:52.355Z,28.25
2023-05-19T12:48:22.599Z,28.61
2023-05-19T12:50:52.764Z,28.78
2023-05-19T12:53:19.298Z,28.56
2023-05-19T12:55:45.854Z,28.32
2023-05-19T12:58:12.578Z,27.58
2023-05-19T13:00:47.810Z,27.93
2023-05-19T13:03:19.666Z,27.75
2023-05-19T13:05:48.328Z,27.60
2023-05-19T13:08:17.153Z,27.52
2023-05-19T13:10:46.205Z,27.47
2023-05-19T13:13:13.355Z,27.36
2023-05-19T13:15:45.446Z,27.12
2023-05-19T13:18:13.338Z,26.93
2023-05-19T13:20:41.216Z,26.94
2023-05-19T13:23:09.982Z,27.04
2023-05-19T13:25:36.787Z,26.61
2023-05-19T13:28:05.535Z,26.01
2023-05-19T13:30:37.058Z,26.54
2023-05-19T13:33:03.969Z,26.25
2023-05-19T13:35:36.713Z,26.53
2023-05-19T13:38:07.840Z,26.26
2023-05-19T13:40:34.978Z,26.45
2023-05-19T13:43:02.961Z,26.16
2023-05-19T13:45:29.865Z,26.16
2023-05-19T13:47:56.910Z,26.40
2023-05-19T13:50:23.642Z,25.68
2023-05-19T13:52:50.048Z,25.18
2023-05-19T13:55:16.582Z,25.21
2023-05-19T13:57:44.214Z,25.13
2023-05-19T14:00:11.462Z,25.10
2023-05-19T14:02:38.165Z,25.71
2023-05-19T14:05:06.506Z,25.88
2023-05-19T14:07:34.716Z,26.07
2023-05-19T14:10:02.073Z,25.64
2023-05-19T14:12:37.211Z,25.71
2023-05-19T14:15:07.072Z,24.79
2023-05-19T14:17:34.360Z,24.16
2023-05-19T14:20:01.302Z,24.31
2023-05-19T14:22:27.717Z,24.33
2023-05-19T14:24:54.086Z,23.83
2023-05-19T14:27:20.536Z,23.98
2023-05-19T14:29:48.771Z,23.93
2023-05-19T14:32:15.560Z,24.55
2023-05-19T14:34:42.066Z,24.52
2023-05-19T14:37:08.409Z,24.41
2023-05-19T14:39:34.784Z,24.47
2023-05-19T14:42:01.243Z,24.83
2023-05-19T14:44:32.817Z,25.05
2023-05-19T14:47:01.163Z,25.00
2023-05-19T14:49:27.622Z,24.60
2023-05-19T14:51:54.036Z,24.88
2023-05-19T14:54:20.456Z,25.14
2023-05-19T14:56:46.884Z,25.20
2023-05-19T14:59:13.260Z,25.53
2023-05-19T15:01:39.847Z,25.18
2023-05-19T15:04:06.401Z,24.72
2023-05-19T15:06:33.137Z,24.84
2023-05-19T15:08:59.562Z,24.90
2023-05-19T15:11:26.122Z,24.45
2023-05-19T15:13:52.626Z,24.52
2023-05-19T15:16:18.991Z,25.29
2023-05-19T15:18:45.474Z,24.95
2023-05-19T15:21:12.254Z,24.75
2023-05-19T15:23:38.661Z,25.05
2023-05-19T15:26:05.070Z,24.48
2023-05-19T15:28:32.108Z,24.70
2023-05-19T15:30:58.501Z,24.40
2023-05-19T15:33:24.854Z,24.58
2023-05-19T15:35:52.220Z,24.85
2023-05-19T15:38:19.444Z,24.53
2023-05-19T15:40:46.665Z,24.18
2023-05-19T15:43:13.264Z,24.66
2023-05-19T15:45:39.735Z,25.09
2023-05-19T15:48:06.400Z,24.71
2023-05-19T15:50:33.062Z,24.69
2023-05-19T15:52:59.639Z,24.78
2023-05-19T15:55:26.005Z,24.81
2023-05-19T15:57:52.402Z,24.61
2023-05-19T16:00:18.981Z,24.26
2023-05-19T16:02:45.485Z,24.38
2023-05-19T16:05:12.086Z,24.07
2023-05-19T16:07:38.453Z,24.02
2023-05-19T16:10:05.390Z,24.71
2023-05-19T16:12:31.918Z,25.05
2023-05-19T16:14:58.351Z,24.72
2023-05-19T16:17:24.760Z,24.50
2023-05-19T16:19:51.266Z,24.42
2023-05-19T16:22:18.210Z,24.07
2023-05-19T16:24:44.902Z,24.26
2023-05-19T16:27:11.455Z,24.20
2023-05-19T16:29:37.851Z,24.08
2023-05-19T16:32:04.460Z,24.94
2023-05-19T16:34:31.045Z,24.77
2023-05-19T16:36:57.452Z,25.10
2023-05-19T16:39:23.799Z,24.50
2023-05-19T16:41:50.318Z,24.37
2023-05-19T16:44:18.322Z,24.18
2023-05-19T16:46:44.761Z,23.85
2023-05-19T16:49:11.291Z,23.65
2023-05-19T16:51:37.716Z,24.06
2023-05-19T16:54:04.055Z,23.33
2023-05-19T16:56:30.634Z,23.74
2023-05-19T16:58:56.999Z,23.61
2023-05-19T17:01:23.524Z,23.61
2023-05-19T17:03:50.018Z,24.00
2023-05-19T17:06:16.432Z,23.76
2023-05-19T17:08:42.847Z,23.68
2023-05-19T17:11:09.450Z,23.49
2023-05-19T17:13:36.582Z,22.92
2023-05-19T17:16:03.108Z,22.82
2023-05-19T17:18:31.185Z,22.88
2023-05-19T17:20:59.236Z,22.70
2023-05-19T17:23:25.713Z,22.58
2023-05-19T17:25:55.038Z,22.60
2023-05-19T17:28:21.483Z,22.65
2023-05-19T17:30:47.885Z,23.24
2023-05-19T17:33:14.382Z,23.31
2023-05-19T17:35:41.499Z,23.31
2023-05-19T17:38:07.940Z,23.22
2023-05-19T17:40:35.001Z,22.99
2023-05-19T17:43:01.665Z,23.28
2023-05-19T17:45:28.070Z,22.83
2023-05-19T17:47:54.566Z,22.63
2023-05-19T17:50:20.977Z,22.90
2023-05-19T17:52:47.659Z,22.74
2023-05-19T17:55:14.488Z,22.72
2023-05-19T17:57:44.973Z,22.86
2023-05-19T18:00:12.511Z,22.17
2023-05-19T18:02:58.171Z,22.06
2023-05-19T18:05:25.200Z,22.18
2023-05-19T18:07:53.632Z,22.35
2023-05-19T18:10:20.436Z,22.25
2023-05-19T18:12:46.852Z,21.98
2023-05-19T18:15:13.241Z,21.94
2023-05-19T18:17:39.744Z,22.08
2023-05-19T18:20:07.450Z,22.04
2023-05-19T18:22:33.827Z,21.90
2023-05-19T18:25:00.287Z,22.32
2023-05-19T18:27:27.845Z,22.26
2023-05-19T18:29:54.239Z,22.13
2023-05-19T18:32:20.765Z,22.00
2023-05-19T18:34:47.620Z,22.22
2023-05-19T18:37:14.000Z,22.16
2023-05-19T18:39:40.437Z,22.53
2023-05-19T18:42:06.851Z,22.13
2023-05-19T18:44:33.888Z,22.74
2023-05-19T18:47:00.347Z,22.82
2023-05-19T18:49:26.738Z,22.83
2023-05-19T18:51:53.189Z,22.83
2023-05-19T18:54:21.591Z,23.52
2023-05-19T18:56:48.070Z,23.25
2023-05-19T18:59:14.433Z,23.71
2023-05-19T19:01:41.011Z,23.38
2023-05-19T19:04:07.730Z,23.90
2023-05-19T19:06:34.371Z,24.05
2023-05-19T19:09:00.921Z,24.13
2023-05-19T19:11:27.560Z,24.26
2023-05-19T19:13:55.884Z,24.75
2023-05-19T19:16:22.460Z,25.18
2023-05-19T19:18:49.009Z,25.57
2023-05-19T19:21:15.454Z,25.75
2023-05-19T19:23:41.823Z,25.96
2023-05-19T19:26:09.460Z,26.39
2023-05-19T19:28:36.353Z,26.49
2023-05-19T19:31:02.821Z,26.25
2023-05-19T19:33:29.515Z,26.88
2023-05-19T19:35:55.988Z,26.97
2023-05-19T19:38:22.333Z,27.41
2023-05-19T19:40:51.384Z,27.69
2023-05-19T19:43:17.962Z,27.84
2023-05-19T19:45:44.391Z,27.87
2023-05-19T19:48:11.896Z,28.49
2023-05-19T19:50:38.527Z,28.42
2023-05-19T19:53:05.011Z,28.49
2023-05-19T19:55:31.775Z,28.85
2023-05-19T19:57:58.151Z,29.03
2023-05-19T20:00:24.605Z,29.49
2023-05-19T20:03:04.501Z,29.28
2023-05-19T20:05:31.752Z,29.35
2023-05-19T20:07:58.213Z,29.92
2023-05-19T20:10:24.629Z,29.84
2023-05-19T20:12:51.270Z,29.79
2023-05-19T20:15:17.886Z,30.02
2023-05-19T20:17:44.357Z,30.08
2023-05-19T20:20:12.204Z,30.24
2023-05-19T20:22:39.074Z,30.29
2023-05-19T20:25:06.000Z,30.33
2023-05-19T20:27:32.421Z,30.44
2023-05-19T20:29:58.806Z,30.78
2023-05-19T20:32:25.454Z,30.75
2023-05-19T20:34:51.945Z,30.88
2023-05-19T20:37:18.396Z,31.65
2023-05-19T20:39:44.786Z,31.37
2023-05-19T20:42:11.286Z,31.31
2023-05-19T20:44:37.699Z,31.45
2023-05-19T20:47:04.346Z,31.28
2023-05-19T20:49:30.793Z,31.50
2023-05-19T20:51:57.180Z,31.82
2023-05-19T20:54:23.590Z,31.88
2023-05-19T20:56:51.740Z,31.96
2023-05-19T20:59:18.172Z,32.19
2023-05-19T21:01:45.631Z,32.22
2023-05-19T21:04:12.113Z,32.42
2023-05-19T21:06:38.795Z,32.75
2023-05-19T21:09:06.680Z,32.40
2023-05-19T21:11:34.043Z,32.80
2023-05-19T21:14:03.866Z,32.91
2023-05-19T21:16:30.903Z,33.05
2023-05-19T21:18:57.461Z,33.06
2023-05-19T21:21:23.855Z,33.27
2023-05-19T21:23:50.332Z,33.54
2023-05-19T21:26:16.865Z,34.10
2023-05-19T21:28:43.228Z,34.27
2023-05-19T21:31:09.697Z,34.05
2023-05-19T21:33:36.461Z,34.18
2023-05-19T21:36:02.865Z,34.63
2023-05-19T21:38:29.266Z,35.11
2023-05-19T21:40:55.735Z,34.94
2023-05-19T21:43:22.405Z,35.15
2023-05-19T21:45:48.921Z,35.67
2023-05-19T21:48:15.518Z,35.60
2023-05-19T21:50:41.975Z,35.53
2023-05-19T21:53:08.365Z,36.06
2023-05-19T21:55:34.895Z,36.23
2023-05-19T21:58:02.588Z,36.80
2023-05-19T22:00:29.294Z,36.91
2023-05-19T22:02:55.943Z,37.16
2023-05-19T22:05:22.434Z,36.76
2023-05-19T22:07:48.914Z,37.27
2023-05-19T22:10:15.320Z,37.26
2023-05-19T22:12:41.671Z,37.90
2023-05-19T22:15:08.777Z,37.89
2023-05-19T22:17:35.170Z,38.12
2023-05-19T22:20:01.562Z,38.24
2023-05-19T22:22:28.164Z,38.05
2023-05-19T22:24:54.589Z,38.36
2023-05-19T22:27:20.953Z,38.61
2023-05-19T22:29:47.379Z,38.69
2023-05-19T22:32:14.043Z,38.22
2023-05-19T22:34:40.798Z,38.43
2023-05-19T22:37:07.274Z,38.75
2023-05-19T22:39:33.640Z,39.23
2023-05-19T22:42:00.029Z,39.22
2023-05-19T22:44:26.506Z,39.23
2023-05-19T22:46:52.889Z,39.42
2023-05-19T22:49:20.923Z,39.63
2023-05-19T22:51:47.284Z,39.60
2023-05-19T22:54:13.696Z,39.98
2023-05-19T22:56:44.360Z,39.71
2023-05-19T22:59:11.846Z,40.20
2023-05-19T23:01:38.238Z,39.69
2023-05-19T23:04:04.952Z,40.04
2023-05-19T23:06:31.458Z,40.34
2023-05-19T23:09:00.570Z,40.21
2023-05-19T23:11:27.132Z,40.16
2023-05-19T23:13:53.565Z,40.51
2023-05-19T23:16:20.003Z,40.51
2023-05-19T23:18:46.422Z,40.67
2023-05-19T23:21:13.153Z,40.83
2023-05-19T23:23:39.583Z,40.75
2023-05-19T23:26:06.060Z,41.03
2023-05-19T23:28:32.447Z,41.17
2023-05-19T23:30:58.891Z,41.34
2023-05-19T23:33:25.299Z,41.34
2023-05-19T23:35:51.709Z,41.46
2023-05-19T23:38:18.080Z,41.27
2023-05-19T23:40:44.480Z,41.78
2023-05-19T23:43:10.895Z,41.59
2023-05-19T23:45:37.307Z,41.92
2023-05-19T23:48:03.979Z,41.92
2023-05-19T23:50:30.401Z,41.87
2023-05-19T23:52:56.771Z,42.22
2023-05-19T23:55:23.377Z,42.22
2023-05-19T23:57:49.777Z,42.54
